Time;durP1;ratioP1;P1;durP2;ratioP2;P2;SDS_P1;SDS_P2;PMS_P1;PMS_P2;Temp;Humidity;BMP_temperature;BMP_pressure;BME280_temperature;BME280_humidity;BME280_pressure;Samples;Min_cycle;Max_cycle;Signal;HPM_P1;HPM_P2
2022/11/22 00:02:04;;;;;;;26.27;15.75;;;3.00;99.90;;;;;;5121063;27;20055;-73
2022/11/22 00:04:29;;;;;;;26.70;15.88;;;3.00;99.90;;;;;;5142244;27;20070;-73
2022/11/22 00:06:55;;;;;;;26.45;16.08;;;3.90;99.90;;;;;;5142820;27;20045;-73
2022/11/22 00:09:20;;;;;;;27.35;16.98;;;3.00;99.90;;;;;;5144398;27;20031;-71
2022/11/22 00:11:46;;;;;;;23.45;15.70;;;2.80;99.90;;;;;;5146174;27;20104;-71
2022/11/22 00:14:11;;;;;;;28.27;16.13;;;4.40;99.90;;;;;;5126673;27;20482;-72
2022/11/22 00:16:37;;;;;;;25.02;15.60;;;2.90;99.90;;;;;;5146512;27;20054;-72
2022/11/22 00:19:03;;;;;;;28.00;15.15;;;3.00;99.90;;;;;;5125119;27;20046;-72
2022/11/22 00:21:29;;;;;;;32.25;15.82;;;2.90;99.90;;;;;;5127070;27;20421;-73
2022/11/22 00:23:56;;;;;;;27.98;15.45;;;2.90;99.90;;;;;;5127970;27;20039;-73
2022/11/22 00:26:24;;;;;;;24.95;15.25;;;2.90;99.90;;;;;;5125127;27;20057;-72
2022/11/22 00:28:50;;;;;;;26.38;15.63;;;3.30;99.90;;;;;;5110381;27;20122;-73
2022/11/22 00:31:15;;;;;;;30.50;16.85;;;2.90;99.90;;;;;;5144852;27;20180;-73
2022/11/22 00:33:41;;;;;;;27.45;14.52;;;2.90;99.90;;;;;;5126886;27;20126;-73
2022/11/22 00:36:07;;;;;;;24.40;15.02;;;2.90;99.90;;;;;;5145707;27;20034;-73
2022/11/22 00:38:33;;;;;;;27.88;15.02;;;2.90;99.90;;;;;;5126245;27;20050;-74
2022/11/22 00:40:58;;;;;;;24.58;14.60;;;3.00;99.90;;;;;;5144691;27;20038;-73
2022/11/22 00:43:24;;;;;;;26.75;15.65;;;2.90;99.90;;;;;;5127454;27;20046;-73
2022/11/22 00:45:49;;;;;;;25.02;14.68;;;3.00;99.90;;;;;;5145733;27;20118;-73
2022/11/22 00:48:15;;;;;;;26.55;17.00;;;3.00;99.90;;;;;;5125446;27;20117;-73
2022/11/22 00:50:41;;;;;;;24.80;15.45;;;2.70;99.90;;;;;;5125990;27;20050;-74
2022/11/22 00:53:06;;;;;;;27.63;16.65;;;2.90;99.90;;;;;;5127345;27;20331;-73
2022/11/22 00:55:32;;;;;;;25.30;15.95;;;2.90;99.90;;;;;;5143934;27;20043;-73
2022/11/22 00:57:57;;;;;;;27.45;15.80;;;3.00;99.90;;;;;;5126480;27;20043;-72
2022/11/22 01:00:23;;;;;;;27.13;16.98;;;2.90;99.90;;;;;;5126791;27;20046;-73
2022/11/22 01:02:49;;;;;;;26.00;15.48;;;4.10;99.90;;;;;;5144702;27;20359;-74
2022/11/22 01:05:16;;;;;;;27.90;17.15;;;2.80;99.90;;;;;;5144736;27;20081;-72
2022/11/22 01:07:42;;;;;;;27.42;15.63;;;2.80;99.90;;;;;;5126270;27;20482;-72
2022/11/22 01:10:09;;;;;;;27.08;16.65;;;2.90;99.90;;;;;;5125956;27;20043;-73
2022/11/22 01:12:34;;;;;;;22.38;15.25;;;2.80;99.90;;;;;;5125725;27;20087;-72
2022/11/22 01:15:00;;;;;;;26.48;16.90;;;2.90;99.90;;;;;;5109424;27;20054;-73
2022/11/22 01:17:26;;;;;;;26.90;15.60;;;2.90;99.90;;;;;;5125448;27;20038;-73
2022/11/22 01:19:52;;;;;;;29.52;16.60;;;2.80;99.90;;;;;;5125160;27;20105;-73
2022/11/22 01:22:17;;;;;;;28.13;16.50;;;2.90;99.90;;;;;;5143509;27;20076;-74
2022/11/22 01:24:43;;;;;;;22.70;15.77;;;2.80;99.90;;;;;;5125746;27;20105;-74
2022/11/22 01:27:09;;;;;;;30.85;18.67;;;2.80;99.90;;;;;;5109720;27;20038;-73
2022/11/22 01:29:34;;;;;;;27.80;16.27;;;3.80;99.90;;;;;;5124495;27;20042;-73
2022/11/22 01:32:00;;;;;;;25.95;17.30;;;3.40;99.90;;;;;;5144387;27;20046;-74
2022/11/22 01:34:25;;;;;;;30.75;18.20;;;2.80;99.90;;;;;;5144299;27;20047;-74
2022/11/22 01:36:51;;;;;;;29.60;18.20;;;2.70;99.90;;;;;;5106681;27;20047;-73
2022/11/22 01:39:17;;;;;;;33.35;19.13;;;2.70;99.90;;;;;;5129505;27;20581;-74
2022/11/22 01:41:42;;;;;;;26.23;17.02;;;2.70;99.90;;;;;;5141122;27;20444;-72
2022/11/22 01:44:28;;;;;;;31.38;18.23;;;3.10;99.90;;;;;;5147613;27;20039;-74
2022/11/22 01:47:00;;;;;;;28.15;17.92;;;2.70;99.90;;;;;;5105425;27;20035;-74
2022/11/22 01:49:56;;;;;;;31.88;17.75;;;2.70;99.90;;;;;;5124175;27;20043;-72
2022/11/22 01:52:27;;;;;;;28.42;17.42;;;2.70;99.90;;;;;;5123022;27;20045;-73
2022/11/22 01:55:07;;;;;;;31.40;18.50;;;3.40;99.90;;;;;;5125789;27;20628;-72
2022/11/22 01:57:35;;;;;;;27.33;17.60;;;2.70;99.90;;;;;;5143059;27;20049;-72
2022/11/22 02:00:07;;;;;;;29.63;18.48;;;2.60;99.90;;;;;;5125569;27;20034;-72
2022/11/22 02:02:34;;;;;;;32.75;18.80;;;2.70;99.90;;;;;;5125391;27;20055;-73
2022/11/22 02:05:09;;;;;;;31.48;19.50;;;3.90;99.90;;;;;;5142633;27;20054;-73
2022/11/22 02:07:57;;;;;;;33.17;19.25;;;2.60;99.90;;;;;;5123406;27;20043;-74
2022/11/22 02:10:27;;;;;;;33.03;17.90;;;2.70;99.90;;;;;;5124036;27;20045;-72
2022/11/22 02:12:54;;;;;;;32.33;19.38;;;2.60;99.90;;;;;;5143655;27;20509;-73
2022/11/22 02:15:20;;;;;;;32.28;19.40;;;4.10;99.90;;;;;;5124566;27;20038;-73
2022/11/22 02:17:45;;;;;;;35.63;20.02;;;2.60;99.90;;;;;;5121128;27;20080;-74
2022/11/22 02:20:11;;;;;;;33.45;19.20;;;4.00;99.90;;;;;;5137057;27;20474;-73
2022/11/22 02:22:51;;;;;;;38.15;20.98;;;2.60;99.90;;;;;;5143560;27;20041;-72
2022/11/22 02:25:40;;;;;;;31.00;19.10;;;2.60;99.90;;;;;;5142191;27;20039;-73
2022/11/22 02:28:08;;;;;;;34.85;19.35;;;2.70;99.90;;;;;;5143521;27;20070;-73
2022/11/22 02:30:39;;;;;;;31.00;19.27;;;2.70;99.90;;;;;;5107118;27;20103;-72
2022/11/22 02:33:05;;;;;;;30.20;18.63;;;2.70;99.90;;;;;;5124226;27;20035;-72
2022/11/22 02:35:31;;;;;;;31.95;19.48;;;2.80;99.90;;;;;;5119899;27;20043;-72
2022/11/22 02:38:00;;;;;;;30.73;18.92;;;3.00;99.90;;;;;;5107839;27;20118;-74
2022/11/22 02:40:31;;;;;;;29.67;18.58;;;2.70;99.90;;;;;;5122065;27;20478;-73
2022/11/22 02:43:07;;;;;;;30.58;19.20;;;2.70;99.90;;;;;;5143477;27;20410;-72
2022/11/22 02:45:33;;;;;;;36.80;19.83;;;2.10;99.90;;;;;;5121550;27;20428;-73
2022/11/22 02:48:10;;;;;;;30.83;19.35;;;2.80;99.90;;;;;;5142595;27;20034;-73
2022/11/22 02:50:36;;;;;;;28.38;18.98;;;2.70;99.90;;;;;;5140152;27;20543;-74
2022/11/22 02:53:03;;;;;;;34.95;18.20;;;2.80;99.90;;;;;;5126174;27;20039;-73
2022/11/22 02:55:29;;;;;;;34.13;18.15;;;2.80;99.90;;;;;;5140645;27;20485;-73
2022/11/22 02:57:55;;;;;;;30.55;18.45;;;2.70;99.90;;;;;;5095785;27;20035;-74
2022/11/22 03:00:20;;;;;;;29.70;18.23;;;4.60;99.90;;;;;;5127065;27;20473;-73
2022/11/22 03:02:46;;;;;;;33.85;18.90;;;2.80;99.90;;;;;;5138502;27;20039;-73
2022/11/22 03:05:12;;;;;;;27.45;18.75;;;2.80;99.90;;;;;;5145865;27;20042;-74
2022/11/22 03:07:37;;;;;;;28.45;18.63;;;2.80;99.90;;;;;;5104588;27;20039;-74
2022/11/22 03:10:03;;;;;;;27.70;18.55;;;2.90;99.90;;;;;;5126459;27;20537;-74
2022/11/22 03:12:29;;;;;;;28.38;17.50;;;2.90;99.90;;;;;;5122650;27;20038;-73
2022/11/22 03:14:54;;;;;;;32.10;18.45;;;2.90;99.90;;;;;;5138361;27;20035;-72
2022/11/22 03:17:20;;;;;;;32.55;18.50;;;2.90;99.90;;;;;;5145149;27;20051;-73
2022/11/22 03:19:46;;;;;;;31.85;18.60;;;3.00;99.90;;;;;;5138886;27;20047;-74
2022/11/22 03:22:12;;;;;;;31.38;17.75;;;3.00;99.90;;;;;;5126293;27;20038;-73
2022/11/22 03:24:38;;;;;;;26.80;17.05;;;3.00;99.90;;;;;;5139761;27;20050;-73
2022/11/22 03:27:04;;;;;;;29.88;17.52;;;3.00;99.90;;;;;;5145157;27;20043;-74
2022/11/22 03:29:29;;;;;;;29.02;17.67;;;4.40;99.90;;;;;;5140402;27;20183;-73
2022/11/22 03:31:55;;;;;;;31.92;18.00;;;3.00;99.90;;;;;;5125946;27;20095;-74
2022/11/22 03:34:21;;;;;;;31.95;18.20;;;3.10;99.90;;;;;;5106712;27;20053;-73
2022/11/22 03:36:46;;;;;;;27.20;17.85;;;3.10;99.90;;;;;;5140773;27;20602;-73
2022/11/22 03:39:12;;;;;;;29.50;17.52;;;3.80;99.90;;;;;;5138463;27;20071;-74
2022/11/22 03:41:38;;;;;;;28.65;17.92;;;4.60;99.90;;;;;;5141562;27;20413;-72
2022/11/22 03:44:03;;;;;;;26.45;17.45;;;4.10;99.90;;;;;;5141631;27;20074;-74
2022/11/22 03:46:29;;;;;;;27.85;17.27;;;3.20;99.90;;;;;;5141215;27;20035;-73
2022/11/22 03:48:55;;;;;;;29.63;18.42;;;4.60;99.90;;;;;;5149521;27;20042;-72
2022/11/22 03:51:20;;;;;;;30.95;17.98;;;3.20;99.90;;;;;;5122880;27;20478;-73
2022/11/22 03:53:46;;;;;;;27.00;17.08;;;3.10;99.90;;;;;;5119966;27;20123;-72
2022/11/22 03:56:12;;;;;;;30.40;18.00;;;3.20;99.90;;;;;;5144702;27;20375;-73
2022/11/22 03:58:37;;;;;;;27.90;17.58;;;3.20;99.90;;;;;;5138916;27;20043;-73
2022/11/22 04:01:03;;;;;;;28.45;17.08;;;3.60;99.90;;;;;;5125437;27;20647;-73
2022/11/22 04:03:29;;;;;;;28.88;18.00;;;3.20;99.90;;;;;;5140761;27;20052;-73
2022/11/22 04:05:55;;;;;;;28.00;17.67;;;3.30;99.90;;;;;;5140986;27;20118;-73
2022/11/22 04:08:21;;;;;;;28.10;16.73;;;3.30;99.90;;;;;;5115138;27;20046;-72
2022/11/22 04:10:50;;;;;;;27.13;16.45;;;3.30;99.90;;;;;;5143862;27;20039;-73
2022/11/22 04:13:17;;;;;;;26.35;16.00;;;3.30;99.90;;;;;;5102410;28;20092;-73
2022/11/22 04:15:42;;;;;;;29.10;17.73;;;3.30;99.90;;;;;;5145664;27;20367;-73
2022/11/22 04:18:09;;;;;;;28.45;17.98;;;3.30;99.90;;;;;;5137459;27;20076;-73
2022/11/22 04:23:22;;;;;;;27.23;17.52;;;3.30;99.90;;;;;;5123282;27;20118;-73
2022/11/22 04:25:49;;;;;;;26.75;17.65;;;3.30;99.90;;;;;;5122778;27;20094;-73
2022/11/22 04:28:18;;;;;;;27.88;17.40;;;3.40;99.90;;;;;;5121402;28;20043;-73
2022/11/22 04:33:29;;;;;;;27.42;17.95;;;3.40;99.90;;;;;;5139988;27;20040;-74
2022/11/22 04:35:55;;;;;;;37.45;18.42;;;3.40;99.90;;;;;;5141872;27;20035;-74
2022/11/22 04:38:21;;;;;;;30.55;18.27;;;3.40;99.90;;;;;;5139078;27;20107;-74
2022/11/22 04:40:47;;;;;;;31.35;17.98;;;4.30;99.90;;;;;;5122473;27;20073;-74
2022/11/22 04:46:04;;;;;;;28.70;17.95;;;3.40;99.90;;;;;;5121495;27;20078;-73
2022/11/22 04:48:30;;;;;;;32.47;18.30;;;3.40;99.90;;;;;;5122470;27;20073;-73
2022/11/22 04:53:40;;;;;;;25.90;16.27;;;3.80;99.90;;;;;;5140606;27;20047;-72
2022/11/22 04:56:06;;;;;;;27.67;16.88;;;3.50;99.90;;;;;;5127404;27;20041;-72
2022/11/22 04:58:31;;;;;;;39.13;19.60;;;3.50;99.90;;;;;;5143893;27;20073;-73
2022/11/22 05:00:57;;;;;;;29.98;18.08;;;3.50;99.90;;;;;;5109374;27;20463;-74
2022/11/22 05:03:22;;;;;;;35.08;19.70;;;3.50;99.90;;;;;;5127220;27;20035;-73
2022/11/22 05:05:48;;;;;;;37.50;18.33;;;3.50;99.90;;;;;;5122851;27;20112;-73
2022/11/22 05:08:14;;;;;;;28.20;17.92;;;3.50;99.90;;;;;;5120327;27;20506;-73
2022/11/22 05:10:58;;;;;;;29.77;18.83;;;5.10;99.90;;;;;;5147993;27;20038;-73
2022/11/22 05:13:36;;;;;;;30.58;17.63;;;3.50;99.90;;;;;;5107985;27;20050;-73
2022/11/22 05:16:03;;;;;;;27.38;17.60;;;3.60;99.90;;;;;;5109372;27;20043;-73
2022/11/22 05:18:30;;;;;;;30.40;17.40;;;3.60;99.90;;;;;;5142718;27;20035;-73
2022/11/22 05:20:56;;;;;;;28.23;18.08;;;3.50;99.90;;;;;;5129416;27;20080;-74
2022/11/22 05:26:08;;;;;;;28.00;17.40;;;4.60;99.90;;;;;;5125373;27;20043;-73
2022/11/22 05:28:35;;;;;;;28.58;18.45;;;3.60;99.90;;;;;;5124419;27;20039;-72
2022/11/22 05:31:09;;;;;;;34.70;18.85;;;5.20;99.90;;;;;;5139125;27;20813;-73
2022/11/22 05:33:40;;;;;;;29.33;18.45;;;3.60;99.90;;;;;;5129712;27;20125;-71
2022/11/22 05:36:06;;;;;;;32.53;18.30;;;3.60;99.90;;;;;;5140551;27;20042;-72
2022/11/22 05:38:34;;;;;;;30.20;17.77;;;3.70;99.90;;;;;;5125983;27;20047;-72
2022/11/22 05:41:03;;;;;;;30.60;17.83;;;3.70;99.90;;;;;;5125715;27;20057;-72
2022/11/22 05:43:29;;;;;;;25.80;16.77;;;3.70;99.90;;;;;;5124222;27;20444;-71
2022/11/22 05:45:55;;;;;;;28.13;17.13;;;3.70;99.90;;;;;;5108950;27;20482;-72
2022/11/22 05:48:21;;;;;;;23.67;16.15;;;3.80;99.90;;;;;;5143290;27;20035;-72
2022/11/22 05:50:46;;;;;;;30.33;18.08;;;4.90;99.90;;;;;;5107756;27;20079;-72
2022/11/22 05:53:12;;;;;;;25.63;16.50;;;3.80;99.90;;;;;;5111796;27;20053;-72
2022/11/22 05:55:38;;;;;;;27.63;16.50;;;3.80;99.90;;;;;;5108810;27;20047;-73
2022/11/22 05:58:03;;;;;;;32.05;17.05;;;3.90;99.90;;;;;;5125166;27;20038;-72
2022/11/22 06:00:29;;;;;;;29.60;16.17;;;3.90;99.90;;;;;;5123604;27;20424;-73
2022/11/22 06:03:02;;;;;;;27.98;16.40;;;3.90;99.90;;;;;;5108905;27;20034;-71
2022/11/22 06:05:29;;;;;;;25.70;15.38;;;3.90;99.90;;;;;;5106322;27;20474;-73
2022/11/22 06:08:01;;;;;;;24.85;16.52;;;5.30;99.90;;;;;;5125768;27;20034;-72
2022/11/22 06:10:27;;;;;;;28.33;17.13;;;4.00;99.90;;;;;;5125253;27;20486;-72
2022/11/22 06:12:54;;;;;;;28.65;15.23;;;4.00;99.90;;;;;;5125117;27;20132;-72
2022/11/22 06:15:20;;;;;;;25.88;16.50;;;4.20;99.90;;;;;;5125649;27;20121;-72
2022/11/22 06:17:46;;;;;;;28.90;16.83;;;4.00;99.90;;;;;;5141025;27;20075;-73
2022/11/22 06:20:11;;;;;;;23.70;16.73;;;4.00;99.90;;;;;;5118614;27;20454;-72
2022/11/22 06:22:37;;;;;;;28.27;16.30;;;5.30;99.90;;;;;;5128525;27;20039;-72
2022/11/22 06:25:03;;;;;;;30.05;16.80;;;4.10;99.90;;;;;;5120965;27;20440;-73
2022/11/22 06:27:29;;;;;;;26.75;16.25;;;4.10;99.90;;;;;;5112722;27;20046;-73
2022/11/22 06:29:55;;;;;;;30.75;16.75;;;4.10;99.90;;;;;;5121765;27;20381;-72
2022/11/22 06:32:20;;;;;;;26.60;16.95;;;4.50;99.90;;;;;;5112095;27;20043;-73
2022/11/22 06:34:46;;;;;;;30.00;17.13;;;4.10;99.90;;;;;;5121606;27;20395;-74
2022/11/22 06:37:15;;;;;;;30.23;15.85;;;4.10;99.90;;;;;;5146385;27;20082;-73
2022/11/22 06:39:40;;;;;;;32.63;17.05;;;4.20;99.90;;;;;;5140651;27;20047;-72
2022/11/22 06:42:06;;;;;;;30.05;16.45;;;4.20;99.90;;;;;;5120880;27;20605;-71
2022/11/22 06:44:33;;;;;;;25.33;15.43;;;5.70;99.90;;;;;;5128106;27;20078;-73
2022/11/22 06:46:58;;;;;;;23.98;16.33;;;4.20;99.90;;;;;;5102973;27;20095;-75
2022/11/22 06:49:24;;;;;;;23.88;15.15;;;5.30;99.90;;;;;;5147121;27;20338;-74
2022/11/22 06:51:50;;;;;;;27.67;15.13;;;4.20;99.90;;;;;;5103752;27;20067;-75
2022/11/22 06:54:16;;;;;;;24.92;16.27;;;5.60;99.90;;;;;;5127527;27;20410;-73
2022/11/22 06:56:41;;;;;;;22.70;15.30;;;5.80;99.90;;;;;;5141091;27;20073;-74
2022/11/22 06:59:08;;;;;;;33.20;15.35;;;4.30;99.90;;;;;;5103740;27;20504;-74
2022/11/22 07:01:35;;;;;;;27.70;15.13;;;4.30;99.90;;;;;;5109963;27;20046;-71
2022/11/22 07:04:02;;;;;;;20.83;14.63;;;4.30;99.90;;;;;;5139431;27;20074;-73
2022/11/22 07:06:37;;;;;;;21.85;13.82;;;4.30;99.90;;;;;;5128450;27;20057;-73
2022/11/22 07:09:08;;;;;;;28.20;15.40;;;5.50;99.90;;;;;;5138512;27;20039;-74
2022/11/22 07:11:34;;;;;;;28.23;14.32;;;4.30;99.90;;;;;;5129296;27;20039;-73
2022/11/22 07:14:02;;;;;;;24.23;13.57;;;4.40;99.90;;;;;;5119960;27;20046;-74
2022/11/22 07:16:27;;;;;;;24.88;15.00;;;4.40;99.90;;;;;;5120371;27;20071;-73
2022/11/22 07:18:53;;;;;;;27.80;14.40;;;4.30;99.90;;;;;;5144874;27;20078;-74
2022/11/22 07:21:21;;;;;;;25.88;12.55;;;4.40;99.90;;;;;;5119836;27;20043;-72
2022/11/22 07:23:48;;;;;;;22.83;12.95;;;4.70;99.90;;;;;;5146488;27;20092;-74
2022/11/22 07:26:16;;;;;;;22.77;12.30;;;4.50;99.90;;;;;;5121049;27;20066;-74
2022/11/22 07:28:43;;;;;;;28.75;12.75;;;4.50;99.90;;;;;;5110958;27;20042;-74
2022/11/22 07:31:10;;;;;;;23.83;12.32;;;4.50;99.90;;;;;;5138702;27;20123;-74
2022/11/22 07:33:36;;;;;;;20.90;11.88;;;4.60;99.90;;;;;;5140429;27;20481;-73
2022/11/22 07:36:04;;;;;;;25.88;10.85;;;4.60;99.90;;;;;;5122692;27;20046;-74
2022/11/22 07:38:29;;;;;;;17.42;10.73;;;4.70;99.90;;;;;;5126168;27;20038;-74
2022/11/22 07:40:55;;;;;;;30.50;11.23;;;4.70;99.90;;;;;;5142450;27;20057;-74
2022/11/22 07:43:21;;;;;;;24.98;9.07;;;4.70;99.90;;;;;;5121584;27;20038;-73
2022/11/22 07:45:46;;;;;;;22.58;8.88;;;5.20;99.90;;;;;;5121118;27;20034;-74
2022/11/22 07:48:13;;;;;;;23.00;8.90;;;4.80;99.90;;;;;;5125222;27;20037;-73
2022/11/22 07:50:40;;;;;;;17.23;8.23;;;4.90;99.90;;;;;;5115064;27;20039;-73
2022/11/22 07:53:07;;;;;;;18.63;7.60;;;4.90;99.90;;;;;;5117315;27;20034;-74
2022/11/22 07:55:32;;;;;;;18.98;7.45;;;4.90;99.90;;;;;;5106121;27;20051;-72
2022/11/22 07:57:59;;;;;;;21.30;8.27;;;4.90;99.90;;;;;;5118724;28;20035;-74
2022/11/22 08:00:25;;;;;;;25.65;7.35;;;4.90;99.90;;;;;;5126696;27;20474;-74
2022/11/22 08:02:51;;;;;;;24.50;6.97;;;4.90;99.90;;;;;;5138969;27;20038;-73
2022/11/22 08:05:16;;;;;;;20.23;7.13;;;4.90;99.90;;;;;;5143539;27;20454;-74
2022/11/22 08:07:49;;;;;;;17.88;6.63;;;4.90;99.90;;;;;;5140196;27;20110;-73
2022/11/22 08:10:16;;;;;;;14.75;6.15;;;4.90;99.90;;;;;;5125766;27;20049;-73
2022/11/22 08:12:42;;;;;;;16.70;6.60;;;4.90;99.90;;;;;;5121891;27;20039;-74
2022/11/22 08:15:08;;;;;;;19.65;5.88;;;5.10;99.90;;;;;;5138039;27;20095;-74
2022/11/22 08:17:34;;;;;;;20.40;6.35;;;4.90;99.90;;;;;;5125546;27;20486;-73
2022/11/22 08:19:59;;;;;;;17.10;5.75;;;4.90;99.90;;;;;;5119400;28;20068;-74
2022/11/22 08:22:25;;;;;;;12.43;5.57;;;4.90;99.90;;;;;;5145341;27;20042;-73
2022/11/22 08:24:50;;;;;;;16.70;5.65;;;4.90;99.90;;;;;;5119502;27;20082;-74
2022/11/22 08:27:16;;;;;;;16.58;5.53;;;4.90;99.90;;;;;;5145149;27;20474;-75
2022/11/22 08:29:42;;;;;;;20.55;5.75;;;4.90;99.90;;;;;;5144193;27;20055;-74
2022/11/22 08:32:07;;;;;;;11.60;5.10;;;4.90;99.90;;;;;;5122800;27;20024;-74
2022/11/22 08:34:33;;;;;;;17.83;6.53;;;4.90;99.90;;;;;;5130181;27;20510;-74
2022/11/22 08:36:58;;;;;;;23.60;6.50;;;4.90;99.90;;;;;;5145473;27;20250;-73
2022/11/22 08:39:24;;;;;;;18.95;4.70;;;4.90;99.90;;;;;;5127017;27;20039;-74
2022/11/22 08:41:50;;;;;;;22.13;5.30;;;4.90;99.90;;;;;;5127106;27;20138;-74
2022/11/22 08:44:15;;;;;;;21.27;5.57;;;4.90;99.90;;;;;;5110576;27;20031;-73
2022/11/22 08:46:41;;;;;;;13.93;4.72;;;4.90;99.90;;;;;;5124717;27;20474;-74
2022/11/22 08:49:10;;;;;;;15.23;4.00;;;4.90;99.90;;;;;;5145818;27;20456;-74
2022/11/22 08:51:35;;;;;;;17.38;4.13;;;4.90;99.90;;;;;;5109202;27;20049;-73
2022/11/22 08:54:01;;;;;;;16.80;4.30;;;5.00;99.90;;;;;;5126639;27;20038;-73
2022/11/22 08:56:27;;;;;;;17.48;4.28;;;5.00;99.90;;;;;;5110156;27;20039;-74
2022/11/22 08:58:53;;;;;;;13.80;4.07;;;5.00;99.90;;;;;;5126557;27;20042;-74
2022/11/22 09:01:20;;;;;;;18.30;3.85;;;5.70;99.90;;;;;;5126542;27;20030;-74
2022/11/22 09:03:46;;;;;;;15.43;3.70;;;5.00;99.90;;;;;;5107040;27;20047;-73
2022/11/22 09:06:14;;;;;;;8.68;3.22;;;5.00;99.90;;;;;;5127579;27;20053;-73
2022/11/22 09:08:39;;;;;;;15.15;4.05;;;5.00;99.90;;;;;;5124289;27;20409;-73
2022/11/22 09:11:14;;;;;;;17.55;3.67;;;5.00;99.90;;;;;;5127699;27;20039;-73
2022/11/22 09:13:40;;;;;;;16.30;3.45;;;5.00;99.90;;;;;;5124704;27;20042;-74
2022/11/22 09:16:08;;;;;;;20.98;4.55;;;5.10;99.90;;;;;;5127652;27;20537;-73
2022/11/22 09:18:35;;;;;;;17.45;4.15;;;6.00;99.90;;;;;;5126130;27;20037;-74
2022/11/22 09:21:03;;;;;;;15.27;3.72;;;5.10;99.90;;;;;;5140097;27;20118;-74
2022/11/22 09:23:28;;;;;;;15.65;3.42;;;5.10;99.90;;;;;;5148407;27;20031;-74
2022/11/22 09:26:03;;;;;;;15.93;4.07;;;5.10;99.90;;;;;;5141453;27;20031;-72
2022/11/22 09:28:29;;;;;;;13.18;3.35;;;5.10;99.90;;;;;;5129894;27;20031;-74
2022/11/22 09:31:01;;;;;;;14.13;4.28;;;5.10;99.90;;;;;;5141387;27;20509;-75
2022/11/22 09:33:27;;;;;;;15.65;3.45;;;5.20;99.90;;;;;;5150112;27;20114;-74
2022/11/22 09:36:09;;;;;;;12.20;4.38;;;5.10;99.90;;;;;;5118217;27;20113;-74
2022/11/22 09:38:36;;;;;;;15.57;4.22;;;5.10;99.90;;;;;;5143235;27;20051;-74
2022/11/22 09:41:13;;;;;;;14.23;4.53;;;5.20;99.90;;;;;;5125442;27;20382;-74
2022/11/22 09:44:07;;;;;;;12.00;4.05;;;5.20;99.90;;;;;;5108166;27;20132;-74
2022/11/22 09:46:55;;;;;;;10.05;4.63;;;5.10;99.90;;;;;;5144600;27;20035;-74
2022/11/22 09:50:07;;;;;;;10.57;4.25;;;5.10;99.90;;;;;;5131909;27;20050;-74
2022/11/22 09:52:56;;;;;;;9.18;4.00;;;5.20;99.90;;;;;;5026647;28;20293;-74
2022/11/22 09:55:24;;;;;;;15.07;4.45;;;5.10;99.90;;;;;;5015236;28;20124;-73
2022/11/22 09:58:16;;;;;;;12.98;3.67;;;5.10;99.90;;;;;;5077241;27;20059;-74
2022/11/22 10:00:42;;;;;;;15.30;4.55;;;5.20;99.90;;;;;;5107954;27;20078;-73
2022/11/22 10:03:50;;;;;;;13.85;3.75;;;5.10;99.90;;;;;;5125236;27;20038;-73
2022/11/22 10:06:29;;;;;;;14.43;3.58;;;5.20;99.90;;;;;;5144650;27;20043;-73
2022/11/22 10:09:04;;;;;;;9.60;3.75;;;5.10;99.90;;;;;;5121616;27;20042;-73
2022/11/22 10:11:38;;;;;;;;;;;5.10;99.90;;;;;;5129496;27;20034;-74
2022/11/22 10:14:39;;;;;;;11.45;2.70;;;5.20;99.90;;;;;;5121534;27;19932;-73
2022/11/22 10:17:29;;;;;;;11.57;3.30;;;5.20;99.90;;;;;;5088646;27;20051;-73
2022/11/22 10:20:15;;;;;;;9.82;2.50;;;5.20;99.90;;;;;;5138566;27;20051;-75
2022/11/22 10:22:40;;;;;;;10.88;2.20;;;5.20;99.90;;;;;;5106471;27;20047;-74
2022/11/22 10:25:20;;;;;;;11.25;3.05;;;5.20;99.90;;;;;;5107287;27;20050;-73
2022/11/22 10:27:57;;;;;;;8.82;3.53;;;5.20;99.90;;;;;;5142493;27;20043;-74
2022/11/22 10:30:24;;;;;;;9.45;2.25;;;5.20;99.90;;;;;;5108420;27;20078;-74
2022/11/22 10:33:16;;;;;;;8.13;2.20;;;5.20;99.90;;;;;;5124202;27;20070;-74
2022/11/22 10:36:20;;;;;;;10.60;2.22;;;6.60;99.90;;;;;;5117346;27;20531;-74
2022/11/22 10:38:54;;;;;;;10.70;2.60;;;5.30;99.90;;;;;;5109674;27;20065;-74
2022/11/22 10:41:39;;;;;;;9.77;2.03;;;5.40;99.90;;;;;;5140000;27;20509;-74
2022/11/22 10:44:13;;;;;;;14.57;1.98;;;5.40;99.90;;;;;;5103729;27;20043;-74
2022/11/22 10:46:45;;;;;;;;;;;5.50;99.90;;;;;;5123543;27;20046;-74
2022/11/22 10:49:38;;;;;;;11.85;2.30;;;5.50;99.90;;;;;;5124567;27;20297;-75
2022/11/22 10:53:00;;;;;;;13.05;2.15;;;5.50;99.90;;;;;;5139151;27;20044;-74
2022/11/22 10:56:00;;;;;;;12.52;2.55;;;5.50;99.90;;;;;;5075276;28;20052;-74
2022/11/22 10:58:26;;;;;;;8.02;2.00;;;5.60;99.90;;;;;;5120799;27;20095;-74
2022/11/22 11:01:04;;;;;;;10.10;2.40;;;5.60;99.90;;;;;;5129271;27;20474;-74
2022/11/22 11:03:34;;;;;;;7.13;1.85;;;5.60;99.90;;;;;;5121102;27;20445;-74
2022/11/22 11:06:18;;;;;;;10.82;2.03;;;5.60;99.90;;;;;;5116247;27;20045;-74
2022/11/22 11:08:52;;;;;;;15.25;1.83;;;5.70;99.90;;;;;;5141254;27;20054;-73
2022/11/22 11:11:21;;;;;;;10.80;2.13;;;5.70;99.90;;;;;;5123918;27;20395;-74
2022/11/22 11:13:52;;;;;;;7.65;2.47;;;5.70;99.90;;;;;;5106115;27;20051;-73
2022/11/22 11:16:21;;;;;;;11.73;2.72;;;5.70;99.90;;;;;;5142697;27;20046;-73
2022/11/22 11:18:56;;;;;;;8.55;1.70;;;5.50;99.90;;;;;;5123458;27;20383;-74
2022/11/22 11:21:22;;;;;;;10.75;2.22;;;6.20;99.90;;;;;;5124418;27;20578;-74
2022/11/22 11:23:47;;;;;;;9.25;2.20;;;5.80;99.90;;;;;;5140755;27;20062;-74
2022/11/22 11:26:19;;;;;;;9.02;2.08;;;5.80;99.90;;;;;;5123752;27;20353;-74
2022/11/22 11:28:45;;;;;;;8.00;2.05;;;5.90;99.90;;;;;;5141504;27;20046;-74
2022/11/22 11:31:17;;;;;;;7.95;2.10;;;5.90;99.90;;;;;;5142653;27;20035;-74
2022/11/22 11:33:43;;;;;;;7.30;1.90;;;5.90;99.90;;;;;;5123578;27;20038;-74
2022/11/22 11:36:19;;;;;;;7.35;2.00;;;6.00;99.90;;;;;;5118559;27;20498;-74
2022/11/22 11:38:45;;;;;;;6.50;1.58;;;6.00;99.90;;;;;;5122068;27;20517;-73
2022/11/22 11:41:23;;;;;;;6.57;2.03;;;6.10;99.90;;;;;;5123250;27;20051;-74
2022/11/22 11:43:53;;;;;;;9.60;1.90;;;6.20;99.90;;;;;;5122818;27;20047;-74
2022/11/22 11:46:25;;;;;;;6.70;1.73;;;6.20;99.90;;;;;;5106172;27;20074;-73
2022/11/22 11:48:53;;;;;;;7.03;1.85;;;6.20;99.90;;;;;;5139471;27;20478;-74
2022/11/22 11:51:21;;;;;;;8.07;1.50;;;6.20;99.90;;;;;;5142370;27;20049;-74
2022/11/22 11:53:56;;;;;;;11.23;1.63;;;6.20;99.90;;;;;;5115552;27;20125;-74
2022/11/22 11:56:31;;;;;;;10.32;1.42;;;6.30;99.90;;;;;;5132400;27;20043;-74
2022/11/22 11:58:59;;;;;;;7.88;1.55;;;6.30;99.90;;;;;;5123422;27;20074;-74
2022/11/22 12:01:25;;;;;;;10.23;1.77;;;6.40;99.90;;;;;;5128476;28;20097;-74
2022/11/22 12:03:58;;;;;;;8.18;1.50;;;6.50;99.90;;;;;;5146866;27;20542;-74
2022/11/22 12:06:31;;;;;;;7.37;1.53;;;6.50;99.90;;;;;;5150777;27;20528;-74
2022/11/22 12:08:58;;;;;;;8.68;1.48;;;6.50;99.90;;;;;;5126161;27;20284;-75
2022/11/22 12:11:37;;;;;;;8.52;1.83;;;6.50;99.90;;;;;;5151357;27;20030;-74
2022/11/22 12:14:06;;;;;;;8.18;1.60;;;6.60;99.90;;;;;;5145191;27;20027;-74
2022/11/22 12:16:42;;;;;;;9.60;2.00;;;6.50;99.90;;;;;;5134515;27;20041;-74
2022/11/22 12:19:26;;;;;;;10.48;2.55;;;6.50;99.90;;;;;;5109070;27;20035;-74
2022/11/22 12:22:13;;;;;;;50.35;29.08;;;6.50;99.90;;;;;;5128696;27;20051;-74
2022/11/22 12:24:52;;;;;;;6.90;1.67;;;6.50;99.90;;;;;;5128301;27;20126;-74
2022/11/22 12:27:18;;;;;;;9.85;1.83;;;6.50;99.90;;;;;;5130808;27;20046;-74
2022/11/22 12:29:44;;;;;;;10.52;1.52;;;6.50;99.90;;;;;;5127921;27;20043;-72
2022/11/22 12:32:16;;;;;;;10.18;1.92;;;6.50;99.90;;;;;;5130244;27;20035;-74
2022/11/22 12:34:54;;;;;;;9.23;1.80;;;6.50;99.90;;;;;;5127759;27;20035;-74
2022/11/22 12:37:42;;;;;;;11.05;2.15;;;6.50;99.90;;;;;;5108737;27;20043;-74
2022/11/22 12:40:57;;;;;;;9.77;1.67;;;6.50;99.90;;;;;;5125766;27;20458;-73
2022/11/22 12:43:28;;;;;;;5.72;1.25;;;7.10;99.90;;;;;;5104800;27;20454;-73
2022/11/22 12:46:29;;;;;;;6.72;1.42;;;6.50;99.90;;;;;;5114594;27;21025;-74
2022/11/22 12:48:56;;;;;;;11.02;1.30;;;6.50;99.90;;;;;;5134067;27;20058;-74
2022/11/22 12:51:43;;;;;;;7.15;1.85;;;7.30;99.90;;;;;;5124977;27;20482;-74
2022/11/22 12:54:15;;;;;;;5.75;1.30;;;6.40;99.90;;;;;;5124533;27;20499;-73
2022/11/22 12:56:50;;;;;;;5.82;1.30;;;6.40;99.90;;;;;;5124508;27;20047;-74
2022/11/22 12:59:45;;;;;;;9.15;2.50;;;6.40;99.90;;;;;;5126416;27;20039;-74
2022/11/22 13:02:33;;;;;;;14.55;7.00;;;6.40;99.90;;;;;;5097433;28;20479;-73
2022/11/22 13:05:10;;;;;;;9.52;1.73;;;6.40;99.90;;;;;;5128276;27;20134;-73
2022/11/22 13:07:45;;;;;;;7.25;1.77;;;6.40;99.90;;;;;;5099172;27;20055;-73
2022/11/22 13:10:14;;;;;;;;;;;6.40;99.90;;;;;;5128860;27;20047;-74
2022/11/22 13:12:43;;;;;;;8.85;1.73;;;6.60;99.90;;;;;;5123486;27;20010;-74